Aérodrome :
LOGIN :

S'inscrire | Disclaimer

   EN    FR    IT 

 










Légende :    VFR   VFR Marginal   IFR   IFR Intensif   IFR Très Intensif
Visi : 
Plafond : 
>= 8 km
>= 3000ft
5 à 8 km
1000 à 3000 ft
1500m à 5 km
500 à 1000 ft
800 à 1500m
200 à 500 ft
< 800m
< 200 ft
Symboles :   Orages  Brouillard  Fortes neiges  Fortes précipitations  Vent > 20 kt
SIGMETs :   Divers  Orages  Givrage  Turbulence  Onde Orograph.  Cendres Volcan.







- Altitude de l'aérodrome : 102 ft
- Code IATA : CNG
- Voir les cartes d'approche


LFBG - Cognac

DERNIER METAR :
  • 280730Z AUTO 26015KT 9999 -RA FEW024/// BKN042/// BKN056/// ///TCU 07/05 Q1000 TEMPO 27030G50KT 4000 SHRA BKN025CB

METARs EXPIRÉS :
  • 280700Z AUTO 27019G41KT 200V330 4500 RA BR SCT015/// BKN020/// BKN027/// ///CB 08/05 Q0999 TEMPO 27030G50KT 2000 SHRA
  • 280630Z AUTO 22011KT 9999 -RA BKN026/// BKN038/// OVC060/// ///TCU 08/05 Q0998 TEMPO 27030G50KT 2000 SHRA BKN025CB
  • 280600Z AUTO 23019KT 9999 SCT034/// BKN041/// OVC056/// ///TCU 09/05 Q0999
  • 280530Z AUTO 20018KT 9999 -RA FEW023/// BKN042/// OVC058/// ///CB 08/06 Q0999
  • 280500Z AUTO 19014KT 9999 -RA SCT037/// BKN046/// BKN054/// ///CB 07/06 Q1000

TAF TAF LFBG
Valide du 28 à 06h jusqu'au 01 à 03h UTC


280555Z 2806/0103 23025G35KT 9999 SCT025
TEMPO 2806/2809 2000 SHRA BKN025CB
TEMPO 2806/2813 27030G50KT
TEMPO 2809/2816 4000 SHRA SCT025TCU
BECMG 2817/2819 27010G20KT
Pas de NOTAMs connus pour ce terrain.
2 SIGMETs publiés pour la FIR Bordeaux (LFBB) :
 
Turbulence forte
LFBB SIGMET 2 VALID 280800/281200 LFPW
LFBB BORDEAUX FIR/UIR SEV TURB FCST NW OF LINE N4245 E00000 - N4400 E00245 SFC/FL080 STNR NC=
Turbulence forte
LFBB SIGMET 1 VALID 280400/280800 LFPW
LFBB BORDEAUX FIR/UIR SEV TURB FCST WI N4245 W00100 - N4300 W00145 - N4630 W00130 - N4630 W00045 SFC/FL060 STNR NC=



MET'MAP, la Météo Aéronautique d'un coup d'oeil ! - Copyright ORBIFLY Décembre 2007 - Disclaimer

ORBIFLY MET'MAP TEAM :

Programmation & Développement : Alexandra Zaïnal
Conception & Développement : Baudouin d'Aumeries
Co-Programmation & Développement : Marc-Olivier Méhu
Soutien technique & logistique : Manuel Goepfert

Contact : metmap@orbifly.com




SOURCES & CREDITS :

   NOAA